sensor_id;sensor_type;location;lat;lon;timestamp;temperature;humidity
2453;DHT22;63678;47.994;7.854;2023-02-01T00:00:26;6.20;99.90
2453;DHT22;63678;47.994;7.854;2023-02-01T00:02:59;6.20;99.90
2453;DHT22;63678;47.994;7.854;2023-02-01T00:05:31;6.20;99.90
2453;DHT22;63678;47.994;7.854;2023-02-01T00:10:39;6.20;99.90
2453;DHT22;63678;47.994;7.854;2023-02-01T00:13:11;6.20;99.90
2453;DHT22;63678;47.994;7.854;2023-02-01T00:15:44;6.20;99.90
2453;DHT22;63678;47.994;7.854;2023-02-01T00:18:16;6.20;99.90
2453;DHT22;63678;47.994;7.854;2023-02-01T00:20:49;6.10;99.90
2453;DHT22;63678;47.994;7.854;2023-02-01T00:23:21;6.10;99.90
2453;DHT22;63678;47.994;7.854;2023-02-01T00:25:53;6.10;99.90
2453;DHT22;63678;47.994;7.854;2023-02-01T00:28:26;6.10;99.90
2453;DHT22;63678;47.994;7.854;2023-02-01T00:31:03;6.10;99.90
2453;DHT22;63678;47.994;7.854;2023-02-01T00:33:36;6.10;99.90
2453;DHT22;63678;47.994;7.854;2023-02-01T00:36:09;6.10;99.90
2453;DHT22;63678;47.994;7.854;2023-02-01T00:38:42;6.10;99.90
2453;DHT22;63678;47.994;7.854;2023-02-01T00:41:17;6.10;99.90
2453;DHT22;63678;47.994;7.854;2023-02-01T00:43:51;6.10;99.90
2453;DHT22;63678;47.994;7.854;2023-02-01T00:46:23;6.10;99.90
2453;DHT22;63678;47.994;7.854;2023-02-01T00:48:56;6.00;99.90
2453;DHT22;63678;47.994;7.854;2023-02-01T00:51:30;6.00;99.90
2453;DHT22;63678;47.994;7.854;2023-02-01T00:56:35;6.00;99.90
2453;DHT22;63678;47.994;7.854;2023-02-01T00:59:11;6.00;99.90
2453;DHT22;63678;47.994;7.854;2023-02-01T01:01:44;6.00;99.90
2453;DHT22;63678;47.994;7.854;2023-02-01T01:06:50;5.90;99.90
2453;DHT22;63678;47.994;7.854;2023-02-01T01:09:23;6.00;99.90
2453;DHT22;63678;47.994;7.854;2023-02-01T01:11:55;6.00;99.90
2453;DHT22;63678;47.994;7.854;2023-02-01T01:14:27;6.00;99.90
2453;DHT22;63678;47.994;7.854;2023-02-01T01:17:03;5.90;99.90
2453;DHT22;63678;47.994;7.854;2023-02-01T01:19:36;6.00;99.90
2453;DHT22;63678;47.994;7.854;2023-02-01T01:22:08;6.00;99.90
2453;DHT22;63678;47.994;7.854;2023-02-01T01:24:41;6.00;99.90
2453;DHT22;63678;47.994;7.854;2023-02-01T01:27:13;5.90;99.90
2453;DHT22;63678;47.994;7.854;2023-02-01T01:29:46;5.90;99.90
2453;DHT22;63678;47.994;7.854;2023-02-01T01:32:18;5.90;99.90
2453;DHT22;63678;47.994;7.854;2023-02-01T01:34:50;5.90;99.90
2453;DHT22;63678;47.994;7.854;2023-02-01T01:37:23;5.90;99.90
2453;DHT22;63678;47.994;7.854;2023-02-01T01:39:55;5.80;99.90
2453;DHT22;63678;47.994;7.854;2023-02-01T01:42:29;5.80;99.90
2453;DHT22;63678;47.994;7.854;2023-02-01T01:45:05;5.80;99.90
2453;DHT22;63678;47.994;7.854;2023-02-01T01:48:07;5.80;99.90
2453;DHT22;63678;47.994;7.854;2023-02-01T01:51:18;5.80;99.90
2453;DHT22;63678;47.994;7.854;2023-02-01T01:54:10;5.90;99.90
2453;DHT22;63678;47.994;7.854;2023-02-01T01:56:49;5.90;99.90
2453;DHT22;63678;47.994;7.854;2023-02-01T01:59:24;5.90;99.90
2453;DHT22;63678;47.994;7.854;2023-02-01T02:01:57;5.90;99.90
2453;DHT22;63678;47.994;7.854;2023-02-01T02:04:31;5.90;99.90
2453;DHT22;63678;47.994;7.854;2023-02-01T02:07:09;5.90;99.90
2453;DHT22;63678;47.994;7.854;2023-02-01T02:09:44;5.90;99.90
2453;DHT22;63678;47.994;7.854;2023-02-01T02:12:31;5.90;99.90
2453;DHT22;63678;47.994;7.854;2023-02-01T02:15:05;5.90;99.90
2453;DHT22;63678;47.994;7.854;2023-02-01T02:26:44;5.90;99.90
2453;DHT22;63678;47.994;7.854;2023-02-01T02:32:29;5.90;99.90
2453;DHT22;63678;47.994;7.854;2023-02-01T02:35:55;5.90;99.90
2453;DHT22;63678;47.994;7.854;2023-02-01T02:41:48;5.90;99.90
2453;DHT22;63678;47.994;7.854;2023-02-01T02:47:44;5.90;99.90
2453;DHT22;63678;47.994;7.854;2023-02-01T02:50:32;5.90;99.90
2453;DHT22;63678;47.994;7.854;2023-02-01T02:53:53;5.90;99.90
2453;DHT22;63678;47.994;7.854;2023-02-01T02:56:53;5.90;99.90
2453;DHT22;63678;47.994;7.854;2023-02-01T02:59:45;5.90;99.90
2453;DHT22;63678;47.994;7.854;2023-02-01T03:02:38;5.90;99.90
2453;DHT22;63678;47.994;7.854;2023-02-01T03:05:35;5.90;99.90
2453;DHT22;63678;47.994;7.854;2023-02-01T03:08:13;5.90;99.90
2453;DHT22;63678;47.994;7.854;2023-02-01T03:13:58;5.90;99.90
2453;DHT22;63678;47.994;7.854;2023-02-01T03:16:54;5.90;99.90
2453;DHT22;63678;47.994;7.854;2023-02-01T03:19:39;5.90;99.90
2453;DHT22;63678;47.994;7.854;2023-02-01T03:22:23;5.90;99.90
2453;DHT22;63678;47.994;7.854;2023-02-01T03:25:18;5.90;99.90
2453;DHT22;63678;47.994;7.854;2023-02-01T03:28:02;5.90;99.90
2453;DHT22;63678;47.994;7.854;2023-02-01T03:30:46;5.80;99.90
2453;DHT22;63678;47.994;7.854;2023-02-01T03:33:23;5.80;99.90
2453;DHT22;63678;47.994;7.854;2023-02-01T03:39:00;5.80;99.90
2453;DHT22;63678;47.994;7.854;2023-02-01T03:42:13;5.80;99.90
2453;DHT22;63678;47.994;7.854;2023-02-01T03:44:50;5.80;99.90
2453;DHT22;63678;47.994;7.854;2023-02-01T03:47:37;5.60;99.90
2453;DHT22;63678;47.994;7.854;2023-02-01T03:50:17;5.50;99.90
2453;DHT22;63678;47.994;7.854;2023-02-01T03:52:58;5.60;99.90
2453;DHT22;63678;47.994;7.854;2023-02-01T03:55:39;5.50;99.90
2453;DHT22;63678;47.994;7.854;2023-02-01T03:58:13;5.50;99.90
2453;DHT22;63678;47.994;7.854;2023-02-01T04:00:55;5.40;99.90
2453;DHT22;63678;47.994;7.854;2023-02-01T04:03:29;5.40;99.90
2453;DHT22;63678;47.994;7.854;2023-02-01T04:06:01;5.40;99.90
2453;DHT22;63678;47.994;7.854;2023-02-01T04:08:34;5.40;99.90
2453;DHT22;63678;47.994;7.854;2023-02-01T04:11:08;5.30;99.90
2453;DHT22;63678;47.994;7.854;2023-02-01T04:13:40;5.30;99.90
2453;DHT22;63678;47.994;7.854;2023-02-01T04:16:12;5.30;99.90
2453;DHT22;63678;47.994;7.854;2023-02-01T04:18:45;5.30;99.90
2453;DHT22;63678;47.994;7.854;2023-02-01T04:21:17;5.20;99.90
2453;DHT22;63678;47.994;7.854;2023-02-01T04:23:49;5.20;99.90
2453;DHT22;63678;47.994;7.854;2023-02-01T04:26:22;5.30;99.90
2453;DHT22;63678;47.994;7.854;2023-02-01T04:31:27;5.30;99.90
2453;DHT22;63678;47.994;7.854;2023-02-01T04:34:00;5.20;99.90
2453;DHT22;63678;47.994;7.854;2023-02-01T04:36:32;5.20;99.90
2453;DHT22;63678;47.994;7.854;2023-02-01T04:39:04;5.10;99.90
2453;DHT22;63678;47.994;7.854;2023-02-01T04:41:37;5.10;99.90
2453;DHT22;63678;47.994;7.854;2023-02-01T04:44:14;5.10;99.90
2453;DHT22;63678;47.994;7.854;2023-02-01T04:46:47;5.10;99.90
2453;DHT22;63678;47.994;7.854;2023-02-01T04:49:20;5.00;99.90
2453;DHT22;63678;47.994;7.854;2023-02-01T04:54:25;5.00;99.90
2453;DHT22;63678;47.994;7.854;2023-02-01T04:56:58;5.00;99.90
2453;DHT22;63678;47.994;7.854;2023-02-01T04:59:30;5.00;99.90
2453;DHT22;63678;47.994;7.854;2023-02-01T05:02:02;5.10;99.90
2453;DHT22;63678;47.994;7.854;2023-02-01T05:04:35;5.00;99.90
2453;DHT22;63678;47.994;7.854;2023-02-01T05:07:07;5.10;99.90
2453;DHT22;63678;47.994;7.854;2023-02-01T05:09:40;5.20;99.90
2453;DHT22;63678;47.994;7.854;2023-02-01T05:12:13;5.20;99.90
2453;DHT22;63678;47.994;7.854;2023-02-01T05:15:04;5.20;99.90
2453;DHT22;63678;47.994;7.854;2023-02-01T05:17:37;5.20;99.90
2453;DHT22;63678;47.994;7.854;2023-02-01T05:20:10;5.30;99.90
2453;DHT22;63678;47.994;7.854;2023-02-01T05:22:42;5.20;99.90
2453;DHT22;63678;47.994;7.854;2023-02-01T05:25:15;5.30;99.90
2453;DHT22;63678;47.994;7.854;2023-02-01T05:27:47;5.20;99.90
2453;DHT22;63678;47.994;7.854;2023-02-01T05:30:19;5.30;99.90
2453;DHT22;63678;47.994;7.854;2023-02-01T05:32:52;5.20;99.90
2453;DHT22;63678;47.994;7.854;2023-02-01T05:35:25;5.20;99.90
2453;DHT22;63678;47.994;7.854;2023-02-01T05:40:30;5.10;99.90
2453;DHT22;63678;47.994;7.854;2023-02-01T05:43:02;5.20;99.90
2453;DHT22;63678;47.994;7.854;2023-02-01T05:50:40;5.10;99.90
2453;DHT22;63678;47.994;7.854;2023-02-01T05:53:15;5.10;99.90
2453;DHT22;63678;47.994;7.854;2023-02-01T05:55:47;5.10;99.90
2453;DHT22;63678;47.994;7.854;2023-02-01T05:58:19;5.10;99.90
2453;DHT22;63678;47.994;7.854;2023-02-01T06:00:52;5.10;99.90
2453;DHT22;63678;47.994;7.854;2023-02-01T06:03:24;5.00;99.90
2453;DHT22;63678;47.994;7.854;2023-02-01T06:05:56;5.00;99.90
2453;DHT22;63678;47.994;7.854;2023-02-01T06:11:05;5.00;99.90
2453;DHT22;63678;47.994;7.854;2023-02-01T06:13:38;5.00;99.90
2453;DHT22;63678;47.994;7.854;2023-02-01T06:16:10;5.00;99.90
2453;DHT22;63678;47.994;7.854;2023-02-01T06:18:43;5.00;99.90
2453;DHT22;63678;47.994;7.854;2023-02-01T06:21:15;5.00;99.90
2453;DHT22;63678;47.994;7.854;2023-02-01T06:23:55;5.00;99.90
2453;DHT22;63678;47.994;7.854;2023-02-01T06:26:29;5.10;99.90
2453;DHT22;63678;47.994;7.854;2023-02-01T06:29:02;5.00;99.90
2453;DHT22;63678;47.994;7.854;2023-02-01T06:34:07;5.00;99.90
2453;DHT22;63678;47.994;7.854;2023-02-01T06:36:39;5.10;99.90
2453;DHT22;63678;47.994;7.854;2023-02-01T06:39:12;5.10;99.90
2453;DHT22;63678;47.994;7.854;2023-02-01T06:41:48;5.10;99.90
2453;DHT22;63678;47.994;7.854;2023-02-01T06:44:23;5.20;99.90
2453;DHT22;63678;47.994;7.854;2023-02-01T06:46:56;5.10;99.90
2453;DHT22;63678;47.994;7.854;2023-02-01T06:49:28;5.20;99.90
2453;DHT22;63678;47.994;7.854;2023-02-01T06:52:00;5.20;99.90
2453;DHT22;63678;47.994;7.854;2023-02-01T06:57:06;5.30;99.90
2453;DHT22;63678;47.994;7.854;2023-02-01T06:59:38;5.30;99.90
2453;DHT22;63678;47.994;7.854;2023-02-01T07:02:11;5.30;99.90
2453;DHT22;63678;47.994;7.854;2023-02-01T07:04:45;5.40;99.90
2453;DHT22;63678;47.994;7.854;2023-02-01T07:07:18;5.40;99.90
2453;DHT22;63678;47.994;7.854;2023-02-01T07:09:51;5.40;99.90
2453;DHT22;63678;47.994;7.854;2023-02-01T07:14:58;5.50;99.90
2453;DHT22;63678;47.994;7.854;2023-02-01T07:17:30;5.50;99.90
2453;DHT22;63678;47.994;7.854;2023-02-01T07:20:03;5.50;99.90
2453;DHT22;63678;47.994;7.854;2023-02-01T07:22:36;5.50;99.90
2453;DHT22;63678;47.994;7.854;2023-02-01T07:25:08;5.60;99.90
2453;DHT22;63678;47.994;7.854;2023-02-01T07:27:41;5.60;99.90
2453;DHT22;63678;47.994;7.854;2023-02-01T07:35:19;5.50;99.90
2453;DHT22;63678;47.994;7.854;2023-02-01T07:37:51;5.50;99.90
2453;DHT22;63678;47.994;7.854;2023-02-01T07:40:24;5.50;99.90
2453;DHT22;63678;47.994;7.854;2023-02-01T07:43:00;5.50;99.90
2453;DHT22;63678;47.994;7.854;2023-02-01T07:45:54;5.40;99.90
2453;DHT22;63678;47.994;7.854;2023-02-01T07:51:05;5.50;99.90
2453;DHT22;63678;47.994;7.854;2023-02-01T07:53:43;5.50;99.90
2453;DHT22;63678;47.994;7.854;2023-02-01T07:56:18;5.40;99.90
2453;DHT22;63678;47.994;7.854;2023-02-01T07:58:53;5.40;99.90
2453;DHT22;63678;47.994;7.854;2023-02-01T08:01:32;5.40;99.90
2453;DHT22;63678;47.994;7.854;2023-02-01T08:04:04;5.40;99.90
2453;DHT22;63678;47.994;7.854;2023-02-01T08:06:37;5.50;99.90
2453;DHT22;63678;47.994;7.854;2023-02-01T08:09:10;5.50;99.90
2453;DHT22;63678;47.994;7.854;2023-02-01T08:11:43;5.60;99.90
2453;DHT22;63678;47.994;7.854;2023-02-01T08:14:15;5.70;99.90
2453;DHT22;63678;47.994;7.854;2023-02-01T08:16:48;5.70;99.90
2453;DHT22;63678;47.994;7.854;2023-02-01T08:19:20;5.70;99.90
2453;DHT22;63678;47.994;7.854;2023-02-01T08:24:50;5.80;99.90
2453;DHT22;63678;47.994;7.854;2023-02-01T08:27:22;5.90;99.90
2453;DHT22;63678;47.994;7.854;2023-02-01T08:32:27;5.90;99.90
2453;DHT22;63678;47.994;7.854;2023-02-01T08:35:00;6.00;99.90
2453;DHT22;63678;47.994;7.854;2023-02-01T08:37:33;6.00;99.90
2453;DHT22;63678;47.994;7.854;2023-02-01T08:40:06;6.00;99.90
2453;DHT22;63678;47.994;7.854;2023-02-01T08:42:40;6.10;99.90
2453;DHT22;63678;47.994;7.854;2023-02-01T08:45:26;6.20;99.90
2453;DHT22;63678;47.994;7.854;2023-02-01T08:50:33;6.10;99.90
2453;DHT22;63678;47.994;7.854;2023-02-01T08:58:11;6.00;99.90
2453;DHT22;63678;47.994;7.854;2023-02-01T09:00:44;5.90;99.90
2453;DHT22;63678;47.994;7.854;2023-02-01T09:03:20;5.90;99.90
2453;DHT22;63678;47.994;7.854;2023-02-01T09:06:00;5.80;99.90
2453;DHT22;63678;47.994;7.854;2023-02-01T09:08:34;5.80;99.90
2453;DHT22;63678;47.994;7.854;2023-02-01T09:11:11;5.90;99.90
2453;DHT22;63678;47.994;7.854;2023-02-01T09:13:48;5.80;99.90
2453;DHT22;63678;47.994;7.854;2023-02-01T09:18:53;5.80;99.90
2453;DHT22;63678;47.994;7.854;2023-02-01T09:21:45;5.90;99.90
2453;DHT22;63678;47.994;7.854;2023-02-01T09:24:18;6.10;99.90
2453;DHT22;63678;47.994;7.854;2023-02-01T09:26:50;6.20;99.90
2453;DHT22;63678;47.994;7.854;2023-02-01T09:29:24;6.10;99.90
2453;DHT22;63678;47.994;7.854;2023-02-01T09:31:56;6.10;99.90
2453;DHT22;63678;47.994;7.854;2023-02-01T09:34:36;6.10;99.90
2453;DHT22;63678;47.994;7.854;2023-02-01T09:37:08;6.00;99.90
2453;DHT22;63678;47.994;7.854;2023-02-01T09:39:41;6.00;99.90
2453;DHT22;63678;47.994;7.854;2023-02-01T09:45:43;6.20;99.90
2453;DHT22;63678;47.994;7.854;2023-02-01T09:48:45;6.00;99.90
2453;DHT22;63678;47.994;7.854;2023-02-01T09:51:23;6.00;99.90
2453;DHT22;63678;47.994;7.854;2023-02-01T09:54:06;6.30;99.90
2453;DHT22;63678;47.994;7.854;2023-02-01T09:56:51;7.00;99.90
2453;DHT22;63678;47.994;7.854;2023-02-01T09:59:33;7.90;99.90
2453;DHT22;63678;47.994;7.854;2023-02-01T10:02:18;8.10;99.90
2453;DHT22;63678;47.994;7.854;2023-02-01T10:04:59;8.10;99.90
2453;DHT22;63678;47.994;7.854;2023-02-01T10:10:38;7.20;99.90
2453;DHT22;63678;47.994;7.854;2023-02-01T10:19:39;6.80;99.90
2453;DHT22;63678;47.994;7.854;2023-02-01T10:22:42;6.50;99.90
2453;DHT22;63678;47.994;7.854;2023-02-01T10:25:43;6.50;99.90
2453;DHT22;63678;47.994;7.854;2023-02-01T10:28:18;6.70;99.90
2453;DHT22;63678;47.994;7.854;2023-02-01T10:30:56;7.00;99.90
2453;DHT22;63678;47.994;7.854;2023-02-01T10:33:44;7.00;99.90
2453;DHT22;63678;47.994;7.854;2023-02-01T10:36:28;6.70;99.90
2453;DHT22;63678;47.994;7.854;2023-02-01T10:39:04;6.60;99.90
2453;DHT22;63678;47.994;7.854;2023-02-01T10:41:38;6.70;99.90
2453;DHT22;63678;47.994;7.854;2023-02-01T10:44:24;6.80;99.90
2453;DHT22;63678;47.994;7.854;2023-02-01T10:46:58;6.80;99.90
2453;DHT22;63678;47.994;7.854;2023-02-01T10:50:02;6.80;99.90
2453;DHT22;63678;47.994;7.854;2023-02-01T10:56:12;6.90;99.90
2453;DHT22;63678;47.994;7.854;2023-02-01T10:58:47;6.80;99.90
2453;DHT22;63678;47.994;7.854;2023-02-01T11:01:30;6.90;99.90
2453;DHT22;63678;47.994;7.854;2023-02-01T11:04:10;7.00;99.90
2453;DHT22;63678;47.994;7.854;2023-02-01T11:06:47;6.80;99.90
2453;DHT22;63678;47.994;7.854;2023-02-01T11:09:24;6.90;99.90
2453;DHT22;63678;47.994;7.854;2023-02-01T11:11:59;7.00;99.90
2453;DHT22;63678;47.994;7.854;2023-02-01T11:14:38;7.00;99.90
2453;DHT22;63678;47.994;7.854;2023-02-01T11:17:40;7.00;99.90
2453;DHT22;63678;47.994;7.854;2023-02-01T11:20:39;7.00;99.90
2453;DHT22;63678;47.994;7.854;2023-02-01T11:23:18;7.10;99.90
2453;DHT22;63678;47.994;7.854;2023-02-01T11:25:55;7.30;99.90
2453;DHT22;63678;47.994;7.854;2023-02-01T11:28:33;7.10;99.90
2453;DHT22;63678;47.994;7.854;2023-02-01T11:31:15;7.20;99.90
2453;DHT22;63678;47.994;7.854;2023-02-01T11:33:53;7.30;99.90
2453;DHT22;63678;47.994;7.854;2023-02-01T11:36:32;7.50;99.90
2453;DHT22;63678;47.994;7.854;2023-02-01T11:42:16;7.70;99.90
2453;DHT22;63678;47.994;7.854;2023-02-01T11:44:51;7.80;99.90
2453;DHT22;63678;47.994;7.854;2023-02-01T11:47:52;7.70;99.90
2453;DHT22;63678;47.994;7.854;2023-02-01T11:57:13;7.60;99.90
2453;DHT22;63678;47.994;7.854;2023-02-01T12:03:01;7.70;99.90
2453;DHT22;63678;47.994;7.854;2023-02-01T12:06:05;7.60;99.90
2453;DHT22;63678;47.994;7.854;2023-02-01T12:12:08;7.80;99.90
2453;DHT22;63678;47.994;7.854;2023-02-01T12:15:06;8.00;99.90
2453;DHT22;63678;47.994;7.854;2023-02-01T12:18:02;8.00;99.90
2453;DHT22;63678;47.994;7.854;2023-02-01T12:36:59;7.50;99.90
2453;DHT22;63678;47.994;7.854;2023-02-01T12:43:04;7.40;99.90
2453;DHT22;63678;47.994;7.854;2023-02-01T12:52:21;7.40;99.90
2453;DHT22;63678;47.994;7.854;2023-02-01T12:55:04;7.40;99.90
2453;DHT22;63678;47.994;7.854;2023-02-01T12:58:18;7.20;99.90
2453;DHT22;63678;47.994;7.854;2023-02-01T13:01:09;7.20;99.90
2453;DHT22;63678;47.994;7.854;2023-02-01T13:04:03;7.20;99.90
2453;DHT22;63678;47.994;7.854;2023-02-01T13:06:47;7.30;99.90
2453;DHT22;63678;47.994;7.854;2023-02-01T13:13:02;7.30;99.90
2453;DHT22;63678;47.994;7.854;2023-02-01T13:16:08;7.40;99.90
2453;DHT22;63678;47.994;7.854;2023-02-01T13:18:47;7.30;99.90
2453;DHT22;63678;47.994;7.854;2023-02-01T13:21:27;7.40;99.90
2453;DHT22;63678;47.994;7.854;2023-02-01T13:24:04;7.30;99.90
2453;DHT22;63678;47.994;7.854;2023-02-01T13:26:36;7.40;99.90
2453;DHT22;63678;47.994;7.854;2023-02-01T13:29:10;7.40;99.90
2453;DHT22;63678;47.994;7.854;2023-02-01T13:38:10;7.50;99.90
2453;DHT22;63678;47.994;7.854;2023-02-01T13:44:13;7.40;99.90
2453;DHT22;63678;47.994;7.854;2023-02-01T13:46:51;7.30;99.90
2453;DHT22;63678;47.994;7.854;2023-02-01T13:49:36;7.30;99.90
2453;DHT22;63678;47.994;7.854;2023-02-01T13:58:04;7.20;99.90
2453;DHT22;63678;47.994;7.854;2023-02-01T14:00:41;7.10;99.90
2453;DHT22;63678;47.994;7.854;2023-02-01T14:03:21;7.40;99.90
2453;DHT22;63678;47.994;7.854;2023-02-01T14:05:56;7.30;99.90
2453;DHT22;63678;47.994;7.854;2023-02-01T14:08:40;7.20;99.90
2453;DHT22;63678;47.994;7.854;2023-02-01T14:24:58;7.20;99.90
2453;DHT22;63678;47.994;7.854;2023-02-01T14:27:35;7.10;99.90
2453;DHT22;63678;47.994;7.854;2023-02-01T14:30:15;7.10;99.90
2453;DHT22;63678;47.994;7.854;2023-02-01T14:35:24;7.00;99.90
2453;DHT22;63678;47.994;7.854;2023-02-01T14:38:01;7.10;99.90
2453;DHT22;63678;47.994;7.854;2023-02-01T14:40:40;7.10;99.90
2453;DHT22;63678;47.994;7.854;2023-02-01T14:43:12;7.00;99.90
2453;DHT22;63678;47.994;7.854;2023-02-01T14:46:06;7.10;99.90
2453;DHT22;63678;47.994;7.854;2023-02-01T14:48:43;7.00;99.90
2453;DHT22;63678;47.994;7.854;2023-02-01T14:51:17;7.00;99.90
2453;DHT22;63678;47.994;7.854;2023-02-01T14:53:51;7.00;99.90
2453;DHT22;63678;47.994;7.854;2023-02-01T14:56:26;7.00;99.90
2453;DHT22;63678;47.994;7.854;2023-02-01T14:59:09;7.00;99.90
2453;DHT22;63678;47.994;7.854;2023-02-01T15:01:53;7.00;99.90
2453;DHT22;63678;47.994;7.854;2023-02-01T15:04:41;7.00;99.90
2453;DHT22;63678;47.994;7.854;2023-02-01T15:07:14;7.00;99.90
2453;DHT22;63678;47.994;7.854;2023-02-01T15:09:48;7.00;99.90
2453;DHT22;63678;47.994;7.854;2023-02-01T15:12:24;7.00;99.90
2453;DHT22;63678;47.994;7.854;2023-02-01T15:15:20;7.00;99.90
2453;DHT22;63678;47.994;7.854;2023-02-01T15:17:59;7.00;99.90
2453;DHT22;63678;47.994;7.854;2023-02-01T15:20:57;7.00;99.90
2453;DHT22;63678;47.994;7.854;2023-02-01T15:23:50;7.00;99.90
2453;DHT22;63678;47.994;7.854;2023-02-01T15:26:27;7.00;99.90
2453;DHT22;63678;47.994;7.854;2023-02-01T15:31:39;7.00;99.90
2453;DHT22;63678;47.994;7.854;2023-02-01T15:34:17;6.90;99.90
2453;DHT22;63678;47.994;7.854;2023-02-01T15:36:50;6.90;99.90
2453;DHT22;63678;47.994;7.854;2023-02-01T15:39:34;7.00;99.90
2453;DHT22;63678;47.994;7.854;2023-02-01T15:42:15;6.80;99.90
2453;DHT22;63678;47.994;7.854;2023-02-01T15:44:51;6.90;99.90
2453;DHT22;63678;47.994;7.854;2023-02-01T15:47:28;6.90;99.90
2453;DHT22;63678;47.994;7.854;2023-02-01T15:50:02;6.90;99.90
2453;DHT22;63678;47.994;7.854;2023-02-01T15:52:37;6.90;99.90
2453;DHT22;63678;47.994;7.854;2023-02-01T15:55:18;6.90;99.90
2453;DHT22;63678;47.994;7.854;2023-02-01T15:57:53;7.00;99.90
2453;DHT22;63678;47.994;7.854;2023-02-01T16:00:28;7.00;99.90
2453;DHT22;63678;47.994;7.854;2023-02-01T16:03:05;7.00;99.90
2453;DHT22;63678;47.994;7.854;2023-02-01T16:05:40;7.00;99.90
2453;DHT22;63678;47.994;7.854;2023-02-01T16:08:20;7.00;99.90
2453;DHT22;63678;47.994;7.854;2023-02-01T16:16:14;7.00;99.90
2453;DHT22;63678;47.994;7.854;2023-02-01T16:21:20;7.00;99.90
2453;DHT22;63678;47.994;7.854;2023-02-01T16:23:52;7.00;99.90
2453;DHT22;63678;47.994;7.854;2023-02-01T16:26:25;7.00;99.90
2453;DHT22;63678;47.994;7.854;2023-02-01T16:28:58;7.00;99.90
2453;DHT22;63678;47.994;7.854;2023-02-01T16:31:38;6.90;99.90
2453;DHT22;63678;47.994;7.854;2023-02-01T16:34:14;6.80;99.90
2453;DHT22;63678;47.994;7.854;2023-02-01T16:36:50;6.80;99.90
2453;DHT22;63678;47.994;7.854;2023-02-01T16:39:24;6.80;99.90
2453;DHT22;63678;47.994;7.854;2023-02-01T16:41:56;6.70;99.90
2453;DHT22;63678;47.994;7.854;2023-02-01T16:44:33;6.70;99.90
2453;DHT22;63678;47.994;7.854;2023-02-01T16:47:15;6.70;99.90
2453;DHT22;63678;47.994;7.854;2023-02-01T16:49:48;6.70;99.90
2453;DHT22;63678;47.994;7.854;2023-02-01T16:52:23;6.70;99.90
2453;DHT22;63678;47.994;7.854;2023-02-01T16:57:30;6.70;99.90
2453;DHT22;63678;47.994;7.854;2023-02-01T17:05:27;6.80;99.90
2453;DHT22;63678;47.994;7.854;2023-02-01T17:08:03;6.70;99.90
2453;DHT22;63678;47.994;7.854;2023-02-01T17:10:38;6.80;99.90
2453;DHT22;63678;47.994;7.854;2023-02-01T17:13:14;6.80;99.90
2453;DHT22;63678;47.994;7.854;2023-02-01T17:16:01;6.80;99.90
2453;DHT22;63678;47.994;7.854;2023-02-01T17:18:35;6.80;99.90
2453;DHT22;63678;47.994;7.854;2023-02-01T17:21:09;6.80;99.90
2453;DHT22;63678;47.994;7.854;2023-02-01T17:23:42;6.80;99.90
2453;DHT22;63678;47.994;7.854;2023-02-01T17:26:15;6.80;99.90
2453;DHT22;63678;47.994;7.854;2023-02-01T17:31:20;6.80;99.90
2453;DHT22;63678;47.994;7.854;2023-02-01T17:33:55;6.80;99.90
2453;DHT22;63678;47.994;7.854;2023-02-01T17:36:27;6.70;99.90
2453;DHT22;63678;47.994;7.854;2023-02-01T17:38:59;6.70;99.90
2453;DHT22;63678;47.994;7.854;2023-02-01T17:44:10;6.60;99.90
2453;DHT22;63678;47.994;7.854;2023-02-01T17:46:43;6.60;99.90
2453;DHT22;63678;47.994;7.854;2023-02-01T17:49:15;6.70;99.90
2453;DHT22;63678;47.994;7.854;2023-02-01T17:51:47;6.60;99.90
2453;DHT22;63678;47.994;7.854;2023-02-01T17:54:21;6.60;99.90
2453;DHT22;63678;47.994;7.854;2023-02-01T17:56:54;6.60;99.90
2453;DHT22;63678;47.994;7.854;2023-02-01T18:02:17;6.50;99.90
2453;DHT22;63678;47.994;7.854;2023-02-01T18:04:56;6.60;99.90
2453;DHT22;63678;47.994;7.854;2023-02-01T18:07:34;6.50;99.90
2453;DHT22;63678;47.994;7.854;2023-02-01T18:10:09;6.60;99.90
2453;DHT22;63678;47.994;7.854;2023-02-01T18:12:42;6.60;99.90
2453;DHT22;63678;47.994;7.854;2023-02-01T18:15:22;6.60;99.90
2453;DHT22;63678;47.994;7.854;2023-02-01T18:17:55;6.60;99.90
2453;DHT22;63678;47.994;7.854;2023-02-01T18:20:29;6.70;99.90
2453;DHT22;63678;47.994;7.854;2023-02-01T18:23:02;6.60;99.90
2453;DHT22;63678;47.994;7.854;2023-02-01T18:25:34;6.60;99.90
2453;DHT22;63678;47.994;7.854;2023-02-01T18:28:10;6.60;99.90
2453;DHT22;63678;47.994;7.854;2023-02-01T18:30:47;6.60;99.90
2453;DHT22;63678;47.994;7.854;2023-02-01T18:33:22;6.60;99.90
2453;DHT22;63678;47.994;7.854;2023-02-01T18:35:54;6.60;99.90
2453;DHT22;63678;47.994;7.854;2023-02-01T18:38:26;6.60;99.90
2453;DHT22;63678;47.994;7.854;2023-02-01T18:40:59;6.60;99.90
2453;DHT22;63678;47.994;7.854;2023-02-01T18:43:32;6.60;99.90
2453;DHT22;63678;47.994;7.854;2023-02-01T18:46:04;6.60;99.90
2453;DHT22;63678;47.994;7.854;2023-02-01T18:48:58;6.50;99.90
2453;DHT22;63678;47.994;7.854;2023-02-01T18:51:31;6.50;99.90
2453;DHT22;63678;47.994;7.854;2023-02-01T18:54:24;6.50;99.90
2453;DHT22;63678;47.994;7.854;2023-02-01T18:56:58;6.50;99.90
2453;DHT22;63678;47.994;7.854;2023-02-01T18:59:30;6.50;99.90
2453;DHT22;63678;47.994;7.854;2023-02-01T19:07:09;6.50;99.90
2453;DHT22;63678;47.994;7.854;2023-02-01T19:09:42;6.40;99.90
2453;DHT22;63678;47.994;7.854;2023-02-01T19:12:14;6.50;99.90
2453;DHT22;63678;47.994;7.854;2023-02-01T19:14:46;6.50;99.90
2453;DHT22;63678;47.994;7.854;2023-02-01T19:17:19;6.50;99.90
2453;DHT22;63678;47.994;7.854;2023-02-01T19:19:51;6.40;99.90
2453;DHT22;63678;47.994;7.854;2023-02-01T19:22:24;6.50;99.90
2453;DHT22;63678;47.994;7.854;2023-02-01T19:24:57;6.50;99.90
2453;DHT22;63678;47.994;7.854;2023-02-01T19:27:30;6.50;99.90
2453;DHT22;63678;47.994;7.854;2023-02-01T19:30:04;6.50;99.90
2453;DHT22;63678;47.994;7.854;2023-02-01T19:32:37;6.50;99.90
2453;DHT22;63678;47.994;7.854;2023-02-01T19:35:11;6.50;99.90
2453;DHT22;63678;47.994;7.854;2023-02-01T19:37:47;6.50;99.90
2453;DHT22;63678;47.994;7.854;2023-02-01T19:42:53;6.50;99.90
2453;DHT22;63678;47.994;7.854;2023-02-01T19:45:26;6.40;99.90
2453;DHT22;63678;47.994;7.854;2023-02-01T19:47:58;6.50;99.90
2453;DHT22;63678;47.994;7.854;2023-02-01T19:50:34;6.40;99.90
2453;DHT22;63678;47.994;7.854;2023-02-01T19:55:44;6.40;99.90
2453;DHT22;63678;47.994;7.854;2023-02-01T19:58:19;6.40;99.90
2453;DHT22;63678;47.994;7.854;2023-02-01T20:00:55;6.40;99.90
2453;DHT22;63678;47.994;7.854;2023-02-01T20:06:02;6.40;99.90
2453;DHT22;63678;47.994;7.854;2023-02-01T20:08:34;6.40;99.90
2453;DHT22;63678;47.994;7.854;2023-02-01T20:11:07;6.40;99.90
2453;DHT22;63678;47.994;7.854;2023-02-01T20:13:39;6.40;99.90
2453;DHT22;63678;47.994;7.854;2023-02-01T20:18:45;6.40;99.90
2453;DHT22;63678;47.994;7.854;2023-02-01T20:23:54;6.30;99.90
2453;DHT22;63678;47.994;7.854;2023-02-01T20:26:27;6.30;99.90
2453;DHT22;63678;47.994;7.854;2023-02-01T20:29:00;6.30;99.90
2453;DHT22;63678;47.994;7.854;2023-02-01T20:31:32;6.30;99.90
2453;DHT22;63678;47.994;7.854;2023-02-01T20:34:05;6.30;99.90
2453;DHT22;63678;47.994;7.854;2023-02-01T20:39:10;6.30;99.90
2453;DHT22;63678;47.994;7.854;2023-02-01T20:41:43;6.30;99.90
2453;DHT22;63678;47.994;7.854;2023-02-01T20:44:15;6.30;99.90
2453;DHT22;63678;47.994;7.854;2023-02-01T20:46:47;6.30;99.90